Ashley, ND (58413)

7:46 AM CST on December 04, 2016 (GMT -0600)
RohrichFarm | | Change Station

Elev 2060 ft 46.00 °N, 99.72 °W | Updated 32 seconds ago

Overcast
Overcast
25.7 °F
Feels Like 15 °F
N
11.6
Wind Variable Wind from WNW
Gusts 13.0 mph

Today
High -- | Low -- °F
--% Chance of Precip.
Yesterday
High -- | Low -- °F
Precip. -- in
Pressure 29.79 in
Visibility 10.0 miles
Clouds Few 1000 ft
Scattered Clouds 2600 ft
Overcast 4500 ft
Windchill 15 °F
Dew Point 24 °F
Humidity 94%
Rainfall 0.00 in
Snow Depth Not available.
8:03 AM 4:52 PM
Waxing Crescent, 22% visible
METAR K7L2 041315Z AUTO 28011KT 10SM FEW010 SCT026 OVC045 M02/M02 A2979 RMK AO2
Pressure 29.79 in
Visibility 10.0 miles
Clouds Few 1000 ft
Scattered Clouds 2600 ft
Overcast 4500 ft
Windchill 15 °F
Dew Point 24 °F
Humidity 94%
Rainfall 0.00 in
Snow Depth Not available.
8:03 AM 4:52 PM
Waxing Crescent, 22% visible
METAR K7L2 041315Z AUTO 28011KT 10SM FEW010 SCT026 OVC045 M02/M02 A2979 RMK AO2

10-Day Weather Forecast

Almanac

Astronomy

Dec. 04, 2016 Rise Set
Actual Time
Civil Twilight
Nautical Twilight
Astronomical Twilight
Moon
Length of Visible Light
Length of Day
Tomorrow will be .
, % of the Moon is Illuminated

Today's Extremes

State Highs State Lows

Community

WunderPhotos

Upload Photos

1,955,596 photos uploaded!

WunderBlog® & News

Nearby

Air Quality

  Air Quality AQ Index Pollutant
Not available.

Snow Depth

Station Depth Elevation

Earthquake Activity

City Distance Mag. Time & Date
Minimum magnitude displayed is 2.5.

Coastal Water Temperatures

Place Temperature

Stations

Nearby Weather Stations

Station Location Temp. Windchill Dew Point Humidity Wind Precip. Elev Updated Type
                   

Watches & Warnings

There are currently no watches in effect.